Terminal Aerodrome Forecast
Issued by NWS

Home | Current Version | Previous Version | Text Only | Print | Product List | Glossary On
Versions: 1 2 3 4 5 6 7 8 9 10 11 12 13 14 15 16 17 18 19 20 21 22 23 24
000
FTUS42 KGSP 261757
TAFHKY
TAF
KHKY 261757Z 2618/2718 VRB04KT P6SM SCT050 BKN070
     FM262200 VRB05KT 5SM -SHRA OVC030
      TEMPO 2622/2702 4SM -TSRA OVC015CB
     FM270300 VRB04KT P6SM -SHRA OVC004
     FM270800 24004KT P6SM OVC003 PROB30 2708/2711 4SM -SHRA OVC001
     FM271400 27006KT P6SM BKN020=

USA.gov is the U.S. government's official web portal to all federal, state and local government web resources and services.